sensor_id;sensor_type;location;lat;lon;timestamp;pressure;altitude;pressure_sealevel;temperature;humidity
50867;BME280;36839;51.946;21.002;2022-12-18T00:01:30;101395.05;;;-5.73;100.00
50867;BME280;36839;51.946;21.002;2022-12-18T00:03:57;101402.98;;;-5.71;100.00
50867;BME280;36839;51.946;21.002;2022-12-18T00:06:29;101402.98;;;-5.71;100.00
50867;BME280;36839;51.946;21.002;2022-12-18T00:08:59;101414.59;;;-5.71;100.00
50867;BME280;36839;51.946;21.002;2022-12-18T00:11:29;101427.41;;;-5.69;100.00
50867;BME280;36839;51.946;21.002;2022-12-18T00:13:59;101432.40;;;-5.64;100.00
50867;BME280;36839;51.946;21.002;2022-12-18T00:16:28;101430.63;;;-5.60;100.00
50867;BME280;36839;51.946;21.002;2022-12-18T00:18:57;101430.63;;;-5.60;100.00
50867;BME280;36839;51.946;21.002;2022-12-18T00:21:26;101429.28;;;-5.60;100.00
50867;BME280;36839;51.946;21.002;2022-12-18T00:23:59;101427.83;;;-5.58;100.00
50867;BME280;36839;51.946;21.002;2022-12-18T00:26:32;101427.83;;;-5.58;100.00
50867;BME280;36839;51.946;21.002;2022-12-18T00:29:02;101425.91;;;-5.52;100.00
50867;BME280;36839;51.946;21.002;2022-12-18T00:31:31;101422.66;;;-5.56;100.00
50867;BME280;36839;51.946;21.002;2022-12-18T00:34:01;101432.64;;;-5.52;100.00
50867;BME280;36839;51.946;21.002;2022-12-18T00:36:34;101432.64;;;-5.52;100.00
50867;BME280;36839;51.946;21.002;2022-12-18T00:39:02;101442.77;;;-5.50;100.00
50867;BME280;36839;51.946;21.002;2022-12-18T00:41:30;101442.66;;;-5.49;100.00
50867;BME280;36839;51.946;21.002;2022-12-18T00:44:17;101442.66;;;-5.49;100.00
50867;BME280;36839;51.946;21.002;2022-12-18T00:46:45;101454.78;;;-5.49;100.00
50867;BME280;36839;51.946;21.002;2022-12-18T00:49:17;101462.08;;;-5.45;100.00
50867;BME280;36839;51.946;21.002;2022-12-18T00:51:43;101456.20;;;-5.44;100.00
50867;BME280;36839;51.946;21.002;2022-12-18T00:54:11;101456.20;;;-5.44;100.00
50867;BME280;36839;51.946;21.002;2022-12-18T00:56:38;101459.88;;;-5.46;100.00
50867;BME280;36839;51.946;21.002;2022-12-18T00:59:07;101472.20;;;-5.43;100.00
50867;BME280;36839;51.946;21.002;2022-12-18T01:01:35;101468.03;;;-5.41;100.00
50867;BME280;36839;51.946;21.002;2022-12-18T01:04:03;101467.03;;;-5.40;100.00
50867;BME280;36839;51.946;21.002;2022-12-18T01:06:31;101469.97;;;-5.38;100.00
50867;BME280;36839;51.946;21.002;2022-12-18T01:09:00;101482.34;;;-5.41;100.00
50867;BME280;36839;51.946;21.002;2022-12-18T01:11:29;101479.40;;;-5.38;100.00
50867;BME280;36839;51.946;21.002;2022-12-18T01:13:56;101486.38;;;-5.41;100.00
50867;BME280;36839;51.946;21.002;2022-12-18T01:16:27;101495.91;;;-5.37;100.00
50867;BME280;36839;51.946;21.002;2022-12-18T01:18:57;101487.69;;;-5.35;100.00
50867;BME280;36839;51.946;21.002;2022-12-18T01:21:28;101487.05;;;-5.33;100.00
50867;BME280;36839;51.946;21.002;2022-12-18T01:23:58;101487.05;;;-5.33;100.00
50867;BME280;36839;51.946;21.002;2022-12-18T01:26:29;101498.92;;;-5.30;100.00
50867;BME280;36839;51.946;21.002;2022-12-18T01:28:58;101497.92;;;-5.29;100.00
50867;BME280;36839;51.946;21.002;2022-12-18T01:31:27;101497.64;;;-5.26;100.00
50867;BME280;36839;51.946;21.002;2022-12-18T01:33:55;101496.93;;;-5.28;100.00
50867;BME280;36839;51.946;21.002;2022-12-18T01:36:25;101497.78;;;-5.28;100.00
50867;BME280;36839;51.946;21.002;2022-12-18T01:38:58;101507.28;;;-5.24;100.00
50867;BME280;36839;51.946;21.002;2022-12-18T01:41:27;101502.74;;;-5.23;100.00
50867;BME280;36839;51.946;21.002;2022-12-18T01:43:57;101511.67;;;-5.23;100.00
50867;BME280;36839;51.946;21.002;2022-12-18T01:46:27;101522.69;;;-5.20;100.00
50867;BME280;36839;51.946;21.002;2022-12-18T01:48:56;101522.69;;;-5.20;100.00
50867;BME280;36839;51.946;21.002;2022-12-18T01:51:27;101513.34;;;-5.16;100.00
50867;BME280;36839;51.946;21.002;2022-12-18T01:53:55;101520.92;;;-5.15;100.00
50867;BME280;36839;51.946;21.002;2022-12-18T01:56:22;101520.92;;;-5.15;100.00
50867;BME280;36839;51.946;21.002;2022-12-18T01:59:05;101533.25;;;-5.13;100.00
50867;BME280;36839;51.946;21.002;2022-12-18T02:01:32;101538.53;;;-5.11;100.00
50867;BME280;36839;51.946;21.002;2022-12-18T02:04:25;101552.92;;;-5.07;100.00
50867;BME280;36839;51.946;21.002;2022-12-18T02:06:55;101552.14;;;-5.03;100.00
50867;BME280;36839;51.946;21.002;2022-12-18T02:09:34;101548.73;;;-5.05;100.00
50867;BME280;36839;51.946;21.002;2022-12-18T02:12:05;101554.23;;;-5.01;100.00
50867;BME280;36839;51.946;21.002;2022-12-18T02:14:43;101554.23;;;-5.01;100.00
50867;BME280;36839;51.946;21.002;2022-12-18T02:17:22;101563.73;;;-4.97;100.00
50867;BME280;36839;51.946;21.002;2022-12-18T02:25:34;101566.88;;;-4.92;100.00
50867;BME280;36839;51.946;21.002;2022-12-18T02:28:00;101570.25;;;-5.00;100.00
50867;BME280;36839;51.946;21.002;2022-12-18T02:30:33;101573.87;;;-4.95;100.00
50867;BME280;36839;51.946;21.002;2022-12-18T02:33:04;101587.66;;;-4.89;100.00
50867;BME280;36839;51.946;21.002;2022-12-18T02:35:33;101584.81;;;-4.87;100.00
50867;BME280;36839;51.946;21.002;2022-12-18T02:38:05;101585.59;;;-4.91;100.00
50867;BME280;36839;51.946;21.002;2022-12-18T02:40:32;101578.86;;;-4.91;100.00
50867;BME280;36839;51.946;21.002;2022-12-18T02:43:15;101590.06;;;-4.85;100.00
50867;BME280;36839;51.946;21.002;2022-12-18T02:46:00;101590.06;;;-4.85;100.00
50867;BME280;36839;51.946;21.002;2022-12-18T02:48:31;101590.06;;;-4.85;100.00
50867;BME280;36839;51.946;21.002;2022-12-18T02:51:21;101600.63;;;-4.88;100.00
50867;BME280;36839;51.946;21.002;2022-12-18T02:53:58;101604.03;;;-4.86;100.00
50867;BME280;36839;51.946;21.002;2022-12-18T02:56:31;101607.94;;;-4.84;100.00
50867;BME280;36839;51.946;21.002;2022-12-18T02:59:17;101607.94;;;-4.84;100.00
50867;BME280;36839;51.946;21.002;2022-12-18T03:06:55;101611.98;;;-4.84;100.00
50867;BME280;36839;51.946;21.002;2022-12-18T03:09:38;101611.98;;;-4.84;100.00
50867;BME280;36839;51.946;21.002;2022-12-18T03:12:17;101630.48;;;-4.85;100.00
50867;BME280;36839;51.946;21.002;2022-12-18T03:17:26;101642.86;;;-4.83;100.00
50867;BME280;36839;51.946;21.002;2022-12-18T03:19:57;101642.86;;;-4.83;100.00
50867;BME280;36839;51.946;21.002;2022-12-18T03:22:26;101638.92;;;-4.84;100.00
50867;BME280;36839;51.946;21.002;2022-12-18T03:24:56;101638.92;;;-4.84;100.00
50867;BME280;36839;51.946;21.002;2022-12-18T03:27:32;101647.47;;;-4.79;100.00
50867;BME280;36839;51.946;21.002;2022-12-18T03:30:08;101647.47;;;-4.79;100.00
50867;BME280;36839;51.946;21.002;2022-12-18T03:33:05;101654.03;;;-4.87;100.00
50867;BME280;36839;51.946;21.002;2022-12-18T03:35:13;101657.08;;;-4.86;100.00
50867;BME280;36839;51.946;21.002;2022-12-18T03:37:43;101666.08;;;-4.92;100.00
50867;BME280;36839;51.946;21.002;2022-12-18T03:40:10;101672.67;;;-4.90;100.00
50867;BME280;36839;51.946;21.002;2022-12-18T03:42:48;101663.81;;;-4.86;100.00
50867;BME280;36839;51.946;21.002;2022-12-18T03:50:45;101676.50;;;-4.93;100.00
50867;BME280;36839;51.946;21.002;2022-12-18T03:53:27;101685.05;;;-4.93;100.00
50867;BME280;36839;51.946;21.002;2022-12-18T03:55:52;101676.25;;;-4.95;100.00
50867;BME280;36839;51.946;21.002;2022-12-18T03:58:25;101676.25;;;-4.95;100.00
50867;BME280;36839;51.946;21.002;2022-12-18T04:00:58;101691.32;;;-4.93;100.00
50867;BME280;36839;51.946;21.002;2022-12-18T04:03:32;101693.63;;;-4.94;100.00
50867;BME280;36839;51.946;21.002;2022-12-18T04:06:02;101700.50;;;-4.95;100.00
50867;BME280;36839;51.946;21.002;2022-12-18T04:08:29;101700.42;;;-4.99;100.00
50867;BME280;36839;51.946;21.002;2022-12-18T04:10:57;101700.78;;;-4.98;100.00
50867;BME280;36839;51.946;21.002;2022-12-18T04:13:38;101694.70;;;-5.06;100.00
50867;BME280;36839;51.946;21.002;2022-12-18T04:16:07;101694.70;;;-5.06;100.00
50867;BME280;36839;51.946;21.002;2022-12-18T04:18:37;101699.81;;;-5.03;100.00
50867;BME280;36839;51.946;21.002;2022-12-18T04:21:04;101701.16;;;-5.03;100.00
50867;BME280;36839;51.946;21.002;2022-12-18T04:23:32;101698.11;;;-5.04;100.00
50867;BME280;36839;51.946;21.002;2022-12-18T04:26:01;101714.77;;;-5.04;100.00
50867;BME280;36839;51.946;21.002;2022-12-18T04:28:29;101714.77;;;-5.04;100.00
50867;BME280;36839;51.946;21.002;2022-12-18T04:30:57;101709.16;;;-5.07;100.00
50867;BME280;36839;51.946;21.002;2022-12-18T04:33:26;101720.08;;;-5.08;100.00
50867;BME280;36839;51.946;21.002;2022-12-18T04:35:54;101720.08;;;-5.08;100.00
50867;BME280;36839;51.946;21.002;2022-12-18T04:38:23;101738.81;;;-5.12;100.00
50867;BME280;36839;51.946;21.002;2022-12-18T04:40:50;101740.30;;;-5.14;100.00
50867;BME280;36839;51.946;21.002;2022-12-18T04:43:18;101738.59;;;-5.15;100.00
50867;BME280;36839;51.946;21.002;2022-12-18T04:45:47;101738.59;;;-5.15;100.00
50867;BME280;36839;51.946;21.002;2022-12-18T04:48:15;101753.68;;;-5.18;100.00
50867;BME280;36839;51.946;21.002;2022-12-18T04:50:41;101753.68;;;-5.18;100.00
50867;BME280;36839;51.946;21.002;2022-12-18T04:53:09;101747.81;;;-5.23;100.00
50867;BME280;36839;51.946;21.002;2022-12-18T04:55:37;101757.36;;;-5.19;100.00
50867;BME280;36839;51.946;21.002;2022-12-18T04:58:05;101757.36;;;-5.19;100.00
50867;BME280;36839;51.946;21.002;2022-12-18T05:00:34;101768.77;;;-5.21;100.00
50867;BME280;36839;51.946;21.002;2022-12-18T05:03:03;101770.22;;;-5.23;100.00
50867;BME280;36839;51.946;21.002;2022-12-18T05:05:34;101762.98;;;-5.22;100.00
50867;BME280;36839;51.946;21.002;2022-12-18T05:08:04;101777.80;;;-5.22;100.00
50867;BME280;36839;51.946;21.002;2022-12-18T05:10:32;101777.94;;;-5.24;100.00
50867;BME280;36839;51.946;21.002;2022-12-18T05:12:59;101780.27;;;-5.25;100.00
50867;BME280;36839;51.946;21.002;2022-12-18T05:15:31;101789.07;;;-5.23;100.00
50867;BME280;36839;51.946;21.002;2022-12-18T05:18:02;101789.07;;;-5.23;100.00
50867;BME280;36839;51.946;21.002;2022-12-18T05:20:31;101796.43;;;-5.25;100.00
50867;BME280;36839;51.946;21.002;2022-12-18T05:23:03;101793.88;;;-5.26;100.00
50867;BME280;36839;51.946;21.002;2022-12-18T05:25:30;101793.88;;;-5.26;100.00
50867;BME280;36839;51.946;21.002;2022-12-18T05:28:00;101791.81;;;-5.34;100.00
50867;BME280;36839;51.946;21.002;2022-12-18T05:30:31;101799.53;;;-5.35;100.00
50867;BME280;36839;51.946;21.002;2022-12-18T05:33:01;101792.71;;;-5.39;100.00
50867;BME280;36839;51.946;21.002;2022-12-18T05:35:29;101792.71;;;-5.39;100.00
50867;BME280;36839;51.946;21.002;2022-12-18T05:37:58;101805.06;;;-5.42;100.00
50867;BME280;36839;51.946;21.002;2022-12-18T05:40:26;101805.06;;;-5.42;100.00
50867;BME280;36839;51.946;21.002;2022-12-18T05:42:54;101814.26;;;-5.44;100.00
50867;BME280;36839;51.946;21.002;2022-12-18T05:45:24;101815.61;;;-5.44;100.00
50867;BME280;36839;51.946;21.002;2022-12-18T05:47:52;101815.61;;;-5.44;100.00
50867;BME280;36839;51.946;21.002;2022-12-18T05:50:23;101815.61;;;-5.44;100.00
50867;BME280;36839;51.946;21.002;2022-12-18T05:52:50;101818.43;;;-5.46;100.00
50867;BME280;36839;51.946;21.002;2022-12-18T05:55:20;101816.33;;;-5.42;100.00
50867;BME280;36839;51.946;21.002;2022-12-18T05:57:46;101822.73;;;-5.49;100.00
50867;BME280;36839;51.946;21.002;2022-12-18T06:00:14;101821.39;;;-5.55;100.00
50867;BME280;36839;51.946;21.002;2022-12-18T06:02:45;101829.47;;;-5.55;100.00
50867;BME280;36839;51.946;21.002;2022-12-18T06:05:12;101831.17;;;-5.54;100.00
50867;BME280;36839;51.946;21.002;2022-12-18T06:07:38;101843.65;;;-5.53;100.00
50867;BME280;36839;51.946;21.002;2022-12-18T06:10:08;101850.28;;;-5.57;100.00
50867;BME280;36839;51.946;21.002;2022-12-18T06:12:37;101845.75;;;-5.62;100.00
50867;BME280;36839;51.946;21.002;2022-12-18T06:15:06;101859.08;;;-5.60;100.00
50867;BME280;36839;51.946;21.002;2022-12-18T06:17:34;101859.08;;;-5.60;100.00
50867;BME280;36839;51.946;21.002;2022-12-18T06:20:04;101875.22;;;-5.60;100.00
50867;BME280;36839;51.946;21.002;2022-12-18T06:22:32;101882.08;;;-5.62;100.00
50867;BME280;36839;51.946;21.002;2022-12-18T06:25:02;101892.23;;;-5.60;100.00
50867;BME280;36839;51.946;21.002;2022-12-18T06:27:31;101895.31;;;-5.59;100.00
50867;BME280;36839;51.946;21.002;2022-12-18T06:29:58;101908.77;;;-5.59;100.00
50867;BME280;36839;51.946;21.002;2022-12-18T06:32:27;101913.67;;;-5.58;100.00
50867;BME280;36839;51.946;21.002;2022-12-18T06:34:56;101904.86;;;-5.66;100.00
50867;BME280;36839;51.946;21.002;2022-12-18T06:37:24;101918.55;;;-5.58;100.00
50867;BME280;36839;51.946;21.002;2022-12-18T06:39:54;101907.78;;;-5.63;100.00
50867;BME280;36839;51.946;21.002;2022-12-18T06:42:24;101927.84;;;-5.62;100.00
50867;BME280;36839;51.946;21.002;2022-12-18T06:44:54;101927.84;;;-5.62;100.00
50867;BME280;36839;51.946;21.002;2022-12-18T06:47:23;101921.37;;;-5.65;100.00
50867;BME280;36839;51.946;21.002;2022-12-18T06:49:50;101935.30;;;-5.60;100.00
50867;BME280;36839;51.946;21.002;2022-12-18T06:52:18;101940.34;;;-5.66;100.00
50867;BME280;36839;51.946;21.002;2022-12-18T06:54:46;101940.34;;;-5.66;100.00
50867;BME280;36839;51.946;21.002;2022-12-18T06:57:17;101935.18;;;-5.69;100.00
50867;BME280;36839;51.946;21.002;2022-12-18T06:59:46;101945.58;;;-5.70;100.00
50867;BME280;36839;51.946;21.002;2022-12-18T07:02:13;101941.55;;;-5.70;100.00
50867;BME280;36839;51.946;21.002;2022-12-18T07:04:43;101941.55;;;-5.70;100.00
50867;BME280;36839;51.946;21.002;2022-12-18T07:07:11;101942.29;;;-5.74;100.00
50867;BME280;36839;51.946;21.002;2022-12-18T07:09:37;101942.29;;;-5.74;100.00
50867;BME280;36839;51.946;21.002;2022-12-18T07:12:10;101954.75;;;-5.79;100.00
50867;BME280;36839;51.946;21.002;2022-12-18T07:14:38;101961.12;;;-5.85;100.00
50867;BME280;36839;51.946;21.002;2022-12-18T07:19:54;101967.60;;;-5.82;100.00
50867;BME280;36839;51.946;21.002;2022-12-18T07:22:24;101967.60;;;-5.82;100.00
50867;BME280;36839;51.946;21.002;2022-12-18T07:24:51;101983.98;;;-5.80;100.00
50867;BME280;36839;51.946;21.002;2022-12-18T07:27:18;101983.98;;;-5.80;100.00
50867;BME280;36839;51.946;21.002;2022-12-18T07:29:47;101994.16;;;-5.72;100.00
50867;BME280;36839;51.946;21.002;2022-12-18T07:32:16;101996.72;;;-5.70;100.00
50867;BME280;36839;51.946;21.002;2022-12-18T07:34:44;101997.33;;;-5.61;100.00
50867;BME280;36839;51.946;21.002;2022-12-18T07:37:17;102002.73;;;-5.56;100.00
50867;BME280;36839;51.946;21.002;2022-12-18T07:39:48;102007.61;;;-5.61;100.00
50867;BME280;36839;51.946;21.002;2022-12-18T07:42:16;101987.56;;;-5.68;100.00
50867;BME280;36839;51.946;21.002;2022-12-18T07:44:59;101998.70;;;-5.67;100.00
50867;BME280;36839;51.946;21.002;2022-12-18T07:47:29;102012.16;;;-5.56;100.00
50867;BME280;36839;51.946;21.002;2022-12-18T07:49:57;102015.68;;;-5.50;100.00
50867;BME280;36839;51.946;21.002;2022-12-18T07:52:23;102015.68;;;-5.50;100.00
50867;BME280;36839;51.946;21.002;2022-12-18T07:54:50;102017.05;;;-5.44;100.00
50867;BME280;36839;51.946;21.002;2022-12-18T07:57:20;102017.05;;;-5.44;100.00
50867;BME280;36839;51.946;21.002;2022-12-18T07:59:52;102030.39;;;-5.48;100.00
50867;BME280;36839;51.946;21.002;2022-12-18T08:02:22;102038.69;;;-5.51;100.00
50867;BME280;36839;51.946;21.002;2022-12-18T08:04:54;102036.02;;;-5.46;100.00
50867;BME280;36839;51.946;21.002;2022-12-18T08:07:24;102046.91;;;-5.47;100.00
50867;BME280;36839;51.946;21.002;2022-12-18T08:09:53;102048.15;;;-5.40;100.00
50867;BME280;36839;51.946;21.002;2022-12-18T08:12:25;102063.08;;;-5.30;100.00
50867;BME280;36839;51.946;21.002;2022-12-18T08:14:54;102055.97;;;-5.26;100.00
50867;BME280;36839;51.946;21.002;2022-12-18T08:17:24;102050.09;;;-5.25;100.00
50867;BME280;36839;51.946;21.002;2022-12-18T08:19:51;102058.04;;;-5.24;100.00
50867;BME280;36839;51.946;21.002;2022-12-18T08:22:19;102061.59;;;-5.23;100.00
50867;BME280;36839;51.946;21.002;2022-12-18T08:24:47;102072.50;;;-5.19;100.00
50867;BME280;36839;51.946;21.002;2022-12-18T08:27:15;102071.03;;;-5.18;100.00
50867;BME280;36839;51.946;21.002;2022-12-18T08:29:41;102079.23;;;-5.19;100.00
50867;BME280;36839;51.946;21.002;2022-12-18T08:32:08;102081.20;;;-5.21;100.00
50867;BME280;36839;51.946;21.002;2022-12-18T08:34:36;102088.17;;;-5.30;100.00
50867;BME280;36839;51.946;21.002;2022-12-18T08:37:06;102088.17;;;-5.30;100.00
50867;BME280;36839;51.946;21.002;2022-12-18T08:39:33;102092.18;;;-5.41;100.00
50867;BME280;36839;51.946;21.002;2022-12-18T08:42:00;102084.48;;;-5.34;100.00
50867;BME280;36839;51.946;21.002;2022-12-18T08:44:47;102091.59;;;-5.28;100.00
50867;BME280;36839;51.946;21.002;2022-12-18T08:47:13;102088.79;;;-5.21;100.00
50867;BME280;36839;51.946;21.002;2022-12-18T08:49:39;102097.84;;;-5.27;100.00
50867;BME280;36839;51.946;21.002;2022-12-18T08:52:07;102094.78;;;-5.17;100.00
50867;BME280;36839;51.946;21.002;2022-12-18T08:54:36;102093.55;;;-5.07;100.00
50867;BME280;36839;51.946;21.002;2022-12-18T08:57:05;102100.03;;;-5.04;100.00
50867;BME280;36839;51.946;21.002;2022-12-18T08:59:32;102095.88;;;-5.08;100.00
50867;BME280;36839;51.946;21.002;2022-12-18T09:02:00;102095.88;;;-4.97;100.00
50867;BME280;36839;51.946;21.002;2022-12-18T09:04:30;102095.88;;;-4.97;100.00
50867;BME280;36839;51.946;21.002;2022-12-18T09:06:56;102107.77;;;-5.00;100.00
50867;BME280;36839;51.946;21.002;2022-12-18T09:09:25;102119.02;;;-4.95;100.00
50867;BME280;36839;51.946;21.002;2022-12-18T09:11:54;102121.48;;;-4.92;100.00
50867;BME280;36839;51.946;21.002;2022-12-18T09:14:21;102120.12;;;-4.80;100.00
50867;BME280;36839;51.946;21.002;2022-12-18T09:16:50;102123.29;;;-4.70;100.00
50867;BME280;36839;51.946;21.002;2022-12-18T09:19:21;102125.36;;;-4.68;100.00
50867;BME280;36839;51.946;21.002;2022-12-18T09:21:50;102133.71;;;-4.87;100.00
50867;BME280;36839;51.946;21.002;2022-12-18T09:24:18;102130.66;;;-4.83;100.00
50867;BME280;36839;51.946;21.002;2022-12-18T09:26:46;102130.66;;;-4.83;100.00
50867;BME280;36839;51.946;21.002;2022-12-18T09:29:15;102138.47;;;-4.74;100.00
50867;BME280;36839;51.946;21.002;2022-12-18T09:31:45;102138.47;;;-4.74;100.00
50867;BME280;36839;51.946;21.002;2022-12-18T09:34:13;102145.95;;;-4.83;100.00
50867;BME280;36839;51.946;21.002;2022-12-18T09:36:42;102145.95;;;-4.83;100.00
50867;BME280;36839;51.946;21.002;2022-12-18T09:39:12;102143.02;;;-4.86;100.00
50867;BME280;36839;51.946;21.002;2022-12-18T09:41:45;102144.60;;;-4.83;100.00
50867;BME280;36839;51.946;21.002;2022-12-18T09:44:34;102144.60;;;-4.83;100.00
50867;BME280;36839;51.946;21.002;2022-12-18T09:47:23;102149.88;;;-4.71;100.00
50867;BME280;36839;51.946;21.002;2022-12-18T09:49:56;102144.26;;;-4.73;100.00
50867;BME280;36839;51.946;21.002;2022-12-18T09:52:34;102138.84;;;-4.68;100.00
50867;BME280;36839;51.946;21.002;2022-12-18T09:55:11;102138.84;;;-4.68;100.00
50867;BME280;36839;51.946;21.002;2022-12-18T09:57:42;102137.99;;;-4.63;100.00
50867;BME280;36839;51.946;21.002;2022-12-18T10:00:21;102144.34;;;-4.52;100.00
50867;BME280;36839;51.946;21.002;2022-12-18T10:02:51;102142.22;;;-4.38;100.00
50867;BME280;36839;51.946;21.002;2022-12-18T10:08:02;102146.23;;;-4.26;100.00
50867;BME280;36839;51.946;21.002;2022-12-18T10:10:49;102153.73;;;-4.30;100.00
50867;BME280;36839;51.946;21.002;2022-12-18T10:21:28;102163.30;;;-4.26;100.00
50867;BME280;36839;51.946;21.002;2022-12-18T10:24:22;102166.00;;;-4.26;100.00
50867;BME280;36839;51.946;21.002;2022-12-18T10:26:44;102163.69;;;-4.42;100.00
50867;BME280;36839;51.946;21.002;2022-12-18T10:29:16;102167.73;;;-4.42;100.00
50867;BME280;36839;51.946;21.002;2022-12-18T10:31:45;102160.03;;;-4.52;100.00
50867;BME280;36839;51.946;21.002;2022-12-18T10:34:12;102160.14;;;-4.48;100.00
50867;BME280;36839;51.946;21.002;2022-12-18T10:36:42;102156.59;;;-4.43;100.00
50867;BME280;36839;51.946;21.002;2022-12-18T10:39:20;102153.59;;;-4.23;100.00
50867;BME280;36839;51.946;21.002;2022-12-18T10:41:50;102153.91;;;-4.05;100.00
50867;BME280;36839;51.946;21.002;2022-12-18T10:44:21;102158.20;;;-3.50;100.00
50867;BME280;36839;51.946;21.002;2022-12-18T10:47:02;102157.28;;;-3.39;100.00
50867;BME280;36839;51.946;21.002;2022-12-18T10:49:31;102161.41;;;-3.50;100.00
50867;BME280;36839;51.946;21.002;2022-12-18T10:52:19;102162.78;;;-3.61;100.00
50867;BME280;36839;51.946;21.002;2022-12-18T10:54:57;102162.29;;;-3.61;100.00
50867;BME280;36839;51.946;21.002;2022-12-18T10:57:34;102166.61;;;-3.64;100.00
50867;BME280;36839;51.946;21.002;2022-12-18T11:00:28;102170.93;;;-3.67;100.00
50867;BME280;36839;51.946;21.002;2022-12-18T11:02:58;102170.93;;;-3.67;100.00
50867;BME280;36839;51.946;21.002;2022-12-18T11:05:27;102172.63;;;-3.92;100.00
50867;BME280;36839;51.946;21.002;2022-12-18T11:07:55;102182.97;;;-3.97;100.00
50867;BME280;36839;51.946;21.002;2022-12-18T11:10:28;102181.31;;;-3.89;100.00
50867;BME280;36839;51.946;21.002;2022-12-18T11:12:54;102181.31;;;-3.89;100.00
50867;BME280;36839;51.946;21.002;2022-12-18T11:15:34;102179.19;;;-3.80;100.00
50867;BME280;36839;51.946;21.002;2022-12-18T11:18:01;102164.81;;;-3.69;100.00
50867;BME280;36839;51.946;21.002;2022-12-18T11:20:34;102164.81;;;-3.69;100.00
50867;BME280;36839;51.946;21.002;2022-12-18T11:23:10;102167.88;;;-3.68;100.00
50867;BME280;36839;51.946;21.002;2022-12-18T11:25:35;102166.91;;;-3.52;100.00
50867;BME280;36839;51.946;21.002;2022-12-18T11:28:23;102162.81;;;-2.89;100.00
50867;BME280;36839;51.946;21.002;2022-12-18T11:30:36;102162.81;;;-2.89;100.00
50867;BME280;36839;51.946;21.002;2022-12-18T11:36:00;102168.48;;;-3.07;100.00
50867;BME280;36839;51.946;21.002;2022-12-18T11:38:37;102171.41;;;-3.05;100.00
50867;BME280;36839;51.946;21.002;2022-12-18T11:41:29;102166.25;;;-3.02;100.00
50867;BME280;36839;51.946;21.002;2022-12-18T11:44:31;102169.31;;;-3.01;100.00
50867;BME280;36839;51.946;21.002;2022-12-18T11:47:09;102175.95;;;-3.05;99.44
50867;BME280;36839;51.946;21.002;2022-12-18T11:49:34;102179.66;;;-3.06;99.00
50867;BME280;36839;51.946;21.002;2022-12-18T11:52:23;102180.56;;;-3.11;98.85
50867;BME280;36839;51.946;21.002;2022-12-18T11:54:54;102180.56;;;-3.11;98.85
50867;BME280;36839;51.946;21.002;2022-12-18T12:00:21;102178.52;;;-3.04;99.23
50867;BME280;36839;51.946;21.002;2022-12-18T12:03:27;102182.41;;;-2.97;99.85
50867;BME280;36839;51.946;21.002;2022-12-18T12:06:15;102174.03;;;-3.09;98.86
50867;BME280;36839;51.946;21.002;2022-12-18T12:09:03;102177.66;;;-3.04;99.57
50867;BME280;36839;51.946;21.002;2022-12-18T12:12:10;102177.66;;;-2.83;100.00
50867;BME280;36839;51.946;21.002;2022-12-18T12:14:36;102181.41;;;-2.96;99.46
50867;BME280;36839;51.946;21.002;2022-12-18T12:19:54;102192.12;;;-3.15;98.80
50867;BME280;36839;51.946;21.002;2022-12-18T12:25:28;102193.50;;;-3.00;100.00
50867;BME280;36839;51.946;21.002;2022-12-18T12:33:24;102206.84;;;-3.13;99.40
50867;BME280;36839;51.946;21.002;2022-12-18T12:38:48;102201.52;;;-3.46;98.97
50867;BME280;36839;51.946;21.002;2022-12-18T12:41:21;102217.64;;;-3.55;99.23
50867;BME280;36839;51.946;21.002;2022-12-18T12:44:09;102217.78;;;-3.62;99.39
50867;BME280;36839;51.946;21.002;2022-12-18T12:46:40;102228.95;;;-3.61;99.88
50867;BME280;36839;51.946;21.002;2022-12-18T12:49:14;102228.95;;;-3.61;99.88
50867;BME280;36839;51.946;21.002;2022-12-18T12:51:40;102230.03;;;-3.85;100.00
50867;BME280;36839;51.946;21.002;2022-12-18T12:54:16;102229.17;;;-3.85;100.00
50867;BME280;36839;51.946;21.002;2022-12-18T12:57:02;102229.17;;;-3.85;100.00
50867;BME280;36839;51.946;21.002;2022-12-18T12:59:52;102239.61;;;-3.92;100.00
50867;BME280;36839;51.946;21.002;2022-12-18T13:02:31;102252.61;;;-3.86;100.00
50867;BME280;36839;51.946;21.002;2022-12-18T13:08:02;102259.73;;;-3.90;100.00
50867;BME280;36839;51.946;21.002;2022-12-18T13:10:31;102255.71;;;-3.96;100.00
50867;BME280;36839;51.946;21.002;2022-12-18T13:13:07;102263.91;;;-3.92;100.00
50867;BME280;36839;51.946;21.002;2022-12-18T13:15:47;102272.39;;;-3.96;100.00
50867;BME280;36839;51.946;21.002;2022-12-18T13:18:22;102272.39;;;-3.96;100.00
50867;BME280;36839;51.946;21.002;2022-12-18T13:23:33;102278.77;;;-4.09;100.00
50867;BME280;36839;51.946;21.002;2022-12-18T13:34:22;102265.65;;;-4.02;100.00
50867;BME280;36839;51.946;21.002;2022-12-18T13:36:53;102272.62;;;-3.99;100.00
50867;BME280;36839;51.946;21.002;2022-12-18T13:39:23;102274.73;;;-3.97;100.00
50867;BME280;36839;51.946;21.002;2022-12-18T13:41:53;102272.19;;;-2.88;100.00
50867;BME280;36839;51.946;21.002;2022-12-18T13:44:28;102271.63;;;-2.97;100.00
50867;BME280;36839;51.946;21.002;2022-12-18T13:46:55;102270.78;;;-3.24;100.00
50867;BME280;36839;51.946;21.002;2022-12-18T13:49:43;102270.78;;;-3.24;100.00
50867;BME280;36839;51.946;21.002;2022-12-18T13:52:28;102277.96;;;-3.66;100.00
50867;BME280;36839;51.946;21.002;2022-12-18T13:54:58;102282.80;;;-3.86;100.00
50867;BME280;36839;51.946;21.002;2022-12-18T13:57:29;102282.44;;;-3.98;100.00
50867;BME280;36839;51.946;21.002;2022-12-18T13:59:56;102282.44;;;-3.98;100.00